sensor_id;sensor_type;location;lat;lon;timestamp;temperature;humidity
16198;DHT22;8206;51.440;6.914;2023-02-01T00:00:54;5.00;99.90
16198;DHT22;8206;51.440;6.914;2023-02-01T00:03:21;5.00;99.90
16198;DHT22;8206;51.440;6.914;2023-02-01T00:05:55;5.10;99.90
16198;DHT22;8206;51.440;6.914;2023-02-01T00:08:22;5.10;99.90
16198;DHT22;8206;51.440;6.914;2023-02-01T00:10:49;5.20;99.90
16198;DHT22;8206;51.440;6.914;2023-02-01T00:13:23;5.20;99.90
16198;DHT22;8206;51.440;6.914;2023-02-01T00:15:50;5.30;99.90
16198;DHT22;8206;51.440;6.914;2023-02-01T00:18:18;5.30;99.90
16198;DHT22;8206;51.440;6.914;2023-02-01T00:20:45;5.30;99.90
16198;DHT22;8206;51.440;6.914;2023-02-01T00:23:12;5.30;99.90
16198;DHT22;8206;51.440;6.914;2023-02-01T00:25:39;5.40;99.90
16198;DHT22;8206;51.440;6.914;2023-02-01T00:28:06;5.40;99.90
16198;DHT22;8206;51.440;6.914;2023-02-01T00:30:32;5.40;99.90
16198;DHT22;8206;51.440;6.914;2023-02-01T00:33:00;5.40;99.90
16198;DHT22;8206;51.440;6.914;2023-02-01T00:35:28;5.40;99.90
16198;DHT22;8206;51.440;6.914;2023-02-01T00:37:55;5.40;99.90
16198;DHT22;8206;51.440;6.914;2023-02-01T00:40:24;5.40;99.90
16198;DHT22;8206;51.440;6.914;2023-02-01T00:42:50;5.30;99.90
16198;DHT22;8206;51.440;6.914;2023-02-01T00:45:17;5.30;99.90
16198;DHT22;8206;51.440;6.914;2023-02-01T00:47:44;5.30;99.90
16198;DHT22;8206;51.440;6.914;2023-02-01T00:50:11;5.20;99.90
16198;DHT22;8206;51.440;6.914;2023-02-01T00:52:39;5.20;99.90
16198;DHT22;8206;51.440;6.914;2023-02-01T00:55:06;5.20;99.90
16198;DHT22;8206;51.440;6.914;2023-02-01T00:57:33;5.20;99.90
16198;DHT22;8206;51.440;6.914;2023-02-01T00:59:59;5.20;99.90
16198;DHT22;8206;51.440;6.914;2023-02-01T01:02:26;5.20;99.90
16198;DHT22;8206;51.440;6.914;2023-02-01T01:04:53;5.30;99.90
16198;DHT22;8206;51.440;6.914;2023-02-01T01:07:20;5.40;99.90
16198;DHT22;8206;51.440;6.914;2023-02-01T01:09:48;5.50;99.90
16198;DHT22;8206;51.440;6.914;2023-02-01T01:12:15;5.50;99.90
16198;DHT22;8206;51.440;6.914;2023-02-01T01:14:42;5.50;99.90
16198;DHT22;8206;51.440;6.914;2023-02-01T01:17:08;5.60;99.90
16198;DHT22;8206;51.440;6.914;2023-02-01T01:19:35;5.60;99.90
16198;DHT22;8206;51.440;6.914;2023-02-01T01:22:02;5.60;99.90
16198;DHT22;8206;51.440;6.914;2023-02-01T01:24:29;5.60;99.90
16198;DHT22;8206;51.440;6.914;2023-02-01T01:26:57;5.60;99.90
16198;DHT22;8206;51.440;6.914;2023-02-01T01:29:24;5.60;99.90
16198;DHT22;8206;51.440;6.914;2023-02-01T01:31:50;5.70;99.90
16198;DHT22;8206;51.440;6.914;2023-02-01T01:34:17;5.60;99.90
16198;DHT22;8206;51.440;6.914;2023-02-01T01:36:44;5.60;99.90
16198;DHT22;8206;51.440;6.914;2023-02-01T01:39:10;5.50;99.90
16198;DHT22;8206;51.440;6.914;2023-02-01T01:41:37;5.50;99.90
16198;DHT22;8206;51.440;6.914;2023-02-01T01:44:06;5.40;99.90
16198;DHT22;8206;51.440;6.914;2023-02-01T01:46:53;5.40;99.90
16198;DHT22;8206;51.440;6.914;2023-02-01T01:49:21;5.40;99.90
16198;DHT22;8206;51.440;6.914;2023-02-01T01:51:53;5.40;99.90
16198;DHT22;8206;51.440;6.914;2023-02-01T01:54:23;5.40;99.90
16198;DHT22;8206;51.440;6.914;2023-02-01T01:56:53;5.30;99.90
16198;DHT22;8206;51.440;6.914;2023-02-01T01:59:24;5.30;99.90
16198;DHT22;8206;51.440;6.914;2023-02-01T02:01:52;5.30;99.90
16198;DHT22;8206;51.440;6.914;2023-02-01T02:04:19;5.30;99.90
16198;DHT22;8206;51.440;6.914;2023-02-01T02:06:50;5.30;99.90
16198;DHT22;8206;51.440;6.914;2023-02-01T02:09:18;5.30;99.90
16198;DHT22;8206;51.440;6.914;2023-02-01T02:11:44;5.20;99.90
16198;DHT22;8206;51.440;6.914;2023-02-01T02:14:13;5.20;99.90
16198;DHT22;8206;51.440;6.914;2023-02-01T02:17:03;5.20;99.90
16198;DHT22;8206;51.440;6.914;2023-02-01T02:20:18;5.20;99.90
16198;DHT22;8206;51.440;6.914;2023-02-01T02:23:05;5.10;99.90
16198;DHT22;8206;51.440;6.914;2023-02-01T02:25:52;5.10;99.90
16198;DHT22;8206;51.440;6.914;2023-02-01T02:31:54;4.90;99.90
16198;DHT22;8206;51.440;6.914;2023-02-01T02:34:28;5.00;99.90
16198;DHT22;8206;51.440;6.914;2023-02-01T02:37:04;5.00;99.90
16198;DHT22;8206;51.440;6.914;2023-02-01T02:39:44;5.00;99.90
16198;DHT22;8206;51.440;6.914;2023-02-01T02:42:18;5.10;99.90
16198;DHT22;8206;51.440;6.914;2023-02-01T02:45:07;5.00;99.90
16198;DHT22;8206;51.440;6.914;2023-02-01T02:47:56;5.00;99.90
16198;DHT22;8206;51.440;6.914;2023-02-01T02:50:29;4.90;99.90
16198;DHT22;8206;51.440;6.914;2023-02-01T02:53:19;4.80;99.90
16198;DHT22;8206;51.440;6.914;2023-02-01T02:56:06;4.80;99.90
16198;DHT22;8206;51.440;6.914;2023-02-01T02:58:53;4.70;99.90
16198;DHT22;8206;51.440;6.914;2023-02-01T03:01:39;4.70;99.90
16198;DHT22;8206;51.440;6.914;2023-02-01T03:04:24;4.60;99.90
16198;DHT22;8206;51.440;6.914;2023-02-01T03:06:53;4.50;99.90
16198;DHT22;8206;51.440;6.914;2023-02-01T03:09:24;4.50;99.90
16198;DHT22;8206;51.440;6.914;2023-02-01T03:11:58;4.50;99.90
16198;DHT22;8206;51.440;6.914;2023-02-01T03:14:46;4.50;99.90
16198;DHT22;8206;51.440;6.914;2023-02-01T03:17:15;4.60;99.90
16198;DHT22;8206;51.440;6.914;2023-02-01T03:19:45;4.60;99.90
16198;DHT22;8206;51.440;6.914;2023-02-01T03:22:19;4.70;99.90
16198;DHT22;8206;51.440;6.914;2023-02-01T03:24:50;4.80;99.90
16198;DHT22;8206;51.440;6.914;2023-02-01T03:27:22;4.80;99.90
16198;DHT22;8206;51.440;6.914;2023-02-01T03:29:54;4.90;99.90
16198;DHT22;8206;51.440;6.914;2023-02-01T03:32:22;4.90;99.90
16198;DHT22;8206;51.440;6.914;2023-02-01T03:34:50;4.90;99.90
16198;DHT22;8206;51.440;6.914;2023-02-01T03:37:23;5.00;99.90
16198;DHT22;8206;51.440;6.914;2023-02-01T03:39:56;5.00;99.90
16198;DHT22;8206;51.440;6.914;2023-02-01T03:42:28;5.00;99.90
16198;DHT22;8206;51.440;6.914;2023-02-01T03:45:03;5.10;99.90
16198;DHT22;8206;51.440;6.914;2023-02-01T03:47:35;5.10;99.90
16198;DHT22;8206;51.440;6.914;2023-02-01T03:50:05;5.10;99.90
16198;DHT22;8206;51.440;6.914;2023-02-01T03:52:38;5.00;99.90
16198;DHT22;8206;51.440;6.914;2023-02-01T03:55:07;5.00;99.90
16198;DHT22;8206;51.440;6.914;2023-02-01T03:57:38;5.00;99.90
16198;DHT22;8206;51.440;6.914;2023-02-01T04:00:09;5.10;99.90
16198;DHT22;8206;51.440;6.914;2023-02-01T04:02:37;5.00;99.90
16198;DHT22;8206;51.440;6.914;2023-02-01T04:05:04;5.00;99.90
16198;DHT22;8206;51.440;6.914;2023-02-01T04:07:31;5.00;99.90
16198;DHT22;8206;51.440;6.914;2023-02-01T04:09:59;5.00;99.90
16198;DHT22;8206;51.440;6.914;2023-02-01T04:12:25;5.10;99.90
16198;DHT22;8206;51.440;6.914;2023-02-01T04:14:52;5.10;99.90
16198;DHT22;8206;51.440;6.914;2023-02-01T04:17:19;5.10;99.90
16198;DHT22;8206;51.440;6.914;2023-02-01T04:19:45;5.00;99.90
16198;DHT22;8206;51.440;6.914;2023-02-01T04:22:12;5.10;99.90
16198;DHT22;8206;51.440;6.914;2023-02-01T04:24:39;5.10;99.90
16198;DHT22;8206;51.440;6.914;2023-02-01T04:27:07;5.00;99.90
16198;DHT22;8206;51.440;6.914;2023-02-01T04:29:34;5.00;99.90
16198;DHT22;8206;51.440;6.914;2023-02-01T04:32:00;4.90;99.90
16198;DHT22;8206;51.440;6.914;2023-02-01T04:34:27;4.90;99.90
16198;DHT22;8206;51.440;6.914;2023-02-01T04:36:54;4.90;99.90
16198;DHT22;8206;51.440;6.914;2023-02-01T04:39:21;4.90;99.90
16198;DHT22;8206;51.440;6.914;2023-02-01T04:41:47;4.90;99.90
16198;DHT22;8206;51.440;6.914;2023-02-01T04:44:16;4.90;99.90
16198;DHT22;8206;51.440;6.914;2023-02-01T04:46:45;5.00;99.90
16198;DHT22;8206;51.440;6.914;2023-02-01T04:49:12;5.00;99.90
16198;DHT22;8206;51.440;6.914;2023-02-01T04:51:40;5.10;99.90
16198;DHT22;8206;51.440;6.914;2023-02-01T04:54:07;5.10;99.90
16198;DHT22;8206;51.440;6.914;2023-02-01T04:56:36;5.10;99.90
16198;DHT22;8206;51.440;6.914;2023-02-01T04:59:03;5.10;99.90
16198;DHT22;8206;51.440;6.914;2023-02-01T05:01:32;5.20;99.90
16198;DHT22;8206;51.440;6.914;2023-02-01T05:03:58;5.20;99.90
16198;DHT22;8206;51.440;6.914;2023-02-01T05:06:25;5.20;99.90
16198;DHT22;8206;51.440;6.914;2023-02-01T05:08:52;5.10;99.90
16198;DHT22;8206;51.440;6.914;2023-02-01T05:11:19;5.00;99.90
16198;DHT22;8206;51.440;6.914;2023-02-01T05:14:03;4.90;99.90
16198;DHT22;8206;51.440;6.914;2023-02-01T05:16:29;4.80;99.90
16198;DHT22;8206;51.440;6.914;2023-02-01T05:18:58;4.90;99.90
16198;DHT22;8206;51.440;6.914;2023-02-01T05:21:24;4.80;99.90
16198;DHT22;8206;51.440;6.914;2023-02-01T05:23:51;4.70;99.90
16198;DHT22;8206;51.440;6.914;2023-02-01T05:26:38;4.70;99.90
16198;DHT22;8206;51.440;6.914;2023-02-01T05:29:06;4.70;99.90
16198;DHT22;8206;51.440;6.914;2023-02-01T05:31:33;4.60;99.90
16198;DHT22;8206;51.440;6.914;2023-02-01T05:34:01;4.60;99.90
16198;DHT22;8206;51.440;6.914;2023-02-01T05:36:28;4.60;99.90
16198;DHT22;8206;51.440;6.914;2023-02-01T05:38:54;4.70;99.90
16198;DHT22;8206;51.440;6.914;2023-02-01T05:41:21;4.60;99.90
16198;DHT22;8206;51.440;6.914;2023-02-01T05:43:48;4.60;99.90
16198;DHT22;8206;51.440;6.914;2023-02-01T05:46:15;4.60;99.90
16198;DHT22;8206;51.440;6.914;2023-02-01T05:48:42;4.50;99.90
16198;DHT22;8206;51.440;6.914;2023-02-01T05:51:11;4.40;99.90
16198;DHT22;8206;51.440;6.914;2023-02-01T05:53:38;4.40;99.90
16198;DHT22;8206;51.440;6.914;2023-02-01T05:56:05;4.40;99.90
16198;DHT22;8206;51.440;6.914;2023-02-01T05:58:32;4.40;99.90
16198;DHT22;8206;51.440;6.914;2023-02-01T06:00:59;4.40;99.90
16198;DHT22;8206;51.440;6.914;2023-02-01T06:03:26;4.40;99.90
16198;DHT22;8206;51.440;6.914;2023-02-01T06:05:53;4.40;99.90
16198;DHT22;8206;51.440;6.914;2023-02-01T06:08:21;4.40;99.90
16198;DHT22;8206;51.440;6.914;2023-02-01T06:10:49;4.60;99.90
16198;DHT22;8206;51.440;6.914;2023-02-01T06:13:17;4.70;99.90
16198;DHT22;8206;51.440;6.914;2023-02-01T06:15:45;4.90;99.90
16198;DHT22;8206;51.440;6.914;2023-02-01T06:18:12;4.90;99.90
16198;DHT22;8206;51.440;6.914;2023-02-01T06:20:41;4.90;99.90
16198;DHT22;8206;51.440;6.914;2023-02-01T06:23:07;5.00;99.90
16198;DHT22;8206;51.440;6.914;2023-02-01T06:25:35;5.00;99.90
16198;DHT22;8206;51.440;6.914;2023-02-01T06:28:03;5.10;99.90
16198;DHT22;8206;51.440;6.914;2023-02-01T06:30:31;5.10;99.90
16198;DHT22;8206;51.440;6.914;2023-02-01T06:32:58;5.10;99.90
16198;DHT22;8206;51.440;6.914;2023-02-01T06:35:24;5.10;99.90
16198;DHT22;8206;51.440;6.914;2023-02-01T06:37:52;5.10;99.90
16198;DHT22;8206;51.440;6.914;2023-02-01T06:40:18;5.20;99.90
16198;DHT22;8206;51.440;6.914;2023-02-01T06:42:48;5.20;99.90
16198;DHT22;8206;51.440;6.914;2023-02-01T06:45:16;5.20;99.90
16198;DHT22;8206;51.440;6.914;2023-02-01T06:47:42;5.20;99.90
16198;DHT22;8206;51.440;6.914;2023-02-01T06:50:10;5.30;99.90
16198;DHT22;8206;51.440;6.914;2023-02-01T06:52:37;5.30;99.90
16198;DHT22;8206;51.440;6.914;2023-02-01T06:55:04;5.40;99.90
16198;DHT22;8206;51.440;6.914;2023-02-01T06:57:31;5.40;99.90
16198;DHT22;8206;51.440;6.914;2023-02-01T07:00:01;5.40;99.90
16198;DHT22;8206;51.440;6.914;2023-02-01T07:02:28;5.40;99.90
16198;DHT22;8206;51.440;6.914;2023-02-01T07:04:55;5.40;99.90
16198;DHT22;8206;51.440;6.914;2023-02-01T07:07:21;5.40;99.90
16198;DHT22;8206;51.440;6.914;2023-02-01T07:09:48;5.40;99.90
16198;DHT22;8206;51.440;6.914;2023-02-01T07:12:15;5.40;99.90
16198;DHT22;8206;51.440;6.914;2023-02-01T07:14:42;5.40;99.90
16198;DHT22;8206;51.440;6.914;2023-02-01T07:17:10;5.50;99.90
16198;DHT22;8206;51.440;6.914;2023-02-01T07:19:37;5.50;99.90
16198;DHT22;8206;51.440;6.914;2023-02-01T07:22:04;5.50;99.90
16198;DHT22;8206;51.440;6.914;2023-02-01T07:24:30;5.50;99.90
16198;DHT22;8206;51.440;6.914;2023-02-01T07:26:57;5.50;99.90
16198;DHT22;8206;51.440;6.914;2023-02-01T07:29:24;5.50;99.90
16198;DHT22;8206;51.440;6.914;2023-02-01T07:31:50;5.60;99.90
16198;DHT22;8206;51.440;6.914;2023-02-01T07:34:19;5.60;99.90
16198;DHT22;8206;51.440;6.914;2023-02-01T07:36:45;5.60;99.90
16198;DHT22;8206;51.440;6.914;2023-02-01T07:39:12;5.70;99.90
16198;DHT22;8206;51.440;6.914;2023-02-01T07:41:39;5.70;99.90
16198;DHT22;8206;51.440;6.914;2023-02-01T07:44:05;5.70;99.90
16198;DHT22;8206;51.440;6.914;2023-02-01T07:46:32;5.70;99.90
16198;DHT22;8206;51.440;6.914;2023-02-01T07:48:59;5.70;99.90
16198;DHT22;8206;51.440;6.914;2023-02-01T07:51:27;5.70;99.90
16198;DHT22;8206;51.440;6.914;2023-02-01T07:53:54;5.70;99.90
16198;DHT22;8206;51.440;6.914;2023-02-01T07:56:21;5.70;99.90
16198;DHT22;8206;51.440;6.914;2023-02-01T07:58:49;5.80;99.90
16198;DHT22;8206;51.440;6.914;2023-02-01T08:01:17;5.80;99.90
16198;DHT22;8206;51.440;6.914;2023-02-01T08:03:47;5.80;99.90
16198;DHT22;8206;51.440;6.914;2023-02-01T08:06:14;5.90;99.90
16198;DHT22;8206;51.440;6.914;2023-02-01T08:08:42;5.90;99.90
16198;DHT22;8206;51.440;6.914;2023-02-01T08:11:10;6.00;99.90
16198;DHT22;8206;51.440;6.914;2023-02-01T08:13:37;5.90;99.90
16198;DHT22;8206;51.440;6.914;2023-02-01T08:16:06;5.90;99.90
16198;DHT22;8206;51.440;6.914;2023-02-01T08:18:33;5.90;99.90
16198;DHT22;8206;51.440;6.914;2023-02-01T08:21:03;5.90;99.90
16198;DHT22;8206;51.440;6.914;2023-02-01T08:23:30;5.90;99.90
16198;DHT22;8206;51.440;6.914;2023-02-01T08:26:06;6.00;99.90
16198;DHT22;8206;51.440;6.914;2023-02-01T08:28:33;5.90;99.90
16198;DHT22;8206;51.440;6.914;2023-02-01T08:31:04;6.00;99.90
16198;DHT22;8206;51.440;6.914;2023-02-01T08:33:31;6.10;99.90
16198;DHT22;8206;51.440;6.914;2023-02-01T08:35:57;6.00;99.90
16198;DHT22;8206;51.440;6.914;2023-02-01T08:38:26;6.00;99.90
16198;DHT22;8206;51.440;6.914;2023-02-01T08:40:53;6.00;99.90
16198;DHT22;8206;51.440;6.914;2023-02-01T08:43:21;6.20;99.90
16198;DHT22;8206;51.440;6.914;2023-02-01T08:45:48;6.10;99.90
16198;DHT22;8206;51.440;6.914;2023-02-01T08:48:16;6.20;99.90
16198;DHT22;8206;51.440;6.914;2023-02-01T08:50:42;6.20;99.90
16198;DHT22;8206;51.440;6.914;2023-02-01T08:53:09;6.20;99.90
16198;DHT22;8206;51.440;6.914;2023-02-01T08:55:38;6.30;99.90
16198;DHT22;8206;51.440;6.914;2023-02-01T08:58:05;6.30;99.90
16198;DHT22;8206;51.440;6.914;2023-02-01T09:00:33;6.40;99.90
16198;DHT22;8206;51.440;6.914;2023-02-01T09:03:00;6.30;99.90
16198;DHT22;8206;51.440;6.914;2023-02-01T09:05:27;6.40;99.90
16198;DHT22;8206;51.440;6.914;2023-02-01T09:07:54;6.30;99.90
16198;DHT22;8206;51.440;6.914;2023-02-01T09:10:21;6.20;99.90
16198;DHT22;8206;51.440;6.914;2023-02-01T09:12:47;6.20;99.90
16198;DHT22;8206;51.440;6.914;2023-02-01T09:15:14;6.20;99.90
16198;DHT22;8206;51.440;6.914;2023-02-01T09:17:42;6.30;99.90
16198;DHT22;8206;51.440;6.914;2023-02-01T09:20:10;6.30;99.90
16198;DHT22;8206;51.440;6.914;2023-02-01T09:22:37;6.30;99.90
16198;DHT22;8206;51.440;6.914;2023-02-01T09:25:04;6.30;99.90
16198;DHT22;8206;51.440;6.914;2023-02-01T09:27:31;6.30;99.90
16198;DHT22;8206;51.440;6.914;2023-02-01T09:29:58;6.30;99.90
16198;DHT22;8206;51.440;6.914;2023-02-01T09:32:25;6.30;99.90
16198;DHT22;8206;51.440;6.914;2023-02-01T09:34:53;6.40;99.90
16198;DHT22;8206;51.440;6.914;2023-02-01T09:37:20;6.40;99.90
16198;DHT22;8206;51.440;6.914;2023-02-01T09:39:46;6.40;99.90
16198;DHT22;8206;51.440;6.914;2023-02-01T09:42:43;6.50;99.90
16198;DHT22;8206;51.440;6.914;2023-02-01T09:45:20;6.50;99.90
16198;DHT22;8206;51.440;6.914;2023-02-01T09:47:53;6.60;99.90
16198;DHT22;8206;51.440;6.914;2023-02-01T09:50:30;6.60;99.90
16198;DHT22;8206;51.440;6.914;2023-02-01T09:53:02;6.60;99.90
16198;DHT22;8206;51.440;6.914;2023-02-01T09:55:36;6.70;99.90
16198;DHT22;8206;51.440;6.914;2023-02-01T09:58:07;6.60;99.90
16198;DHT22;8206;51.440;6.914;2023-02-01T10:00:38;6.70;99.90
16198;DHT22;8206;51.440;6.914;2023-02-01T10:03:07;6.80;99.90
16198;DHT22;8206;51.440;6.914;2023-02-01T10:05:53;6.80;99.90
16198;DHT22;8206;51.440;6.914;2023-02-01T10:08:30;6.80;99.90
16198;DHT22;8206;51.440;6.914;2023-02-01T10:11:07;6.80;99.90
16198;DHT22;8206;51.440;6.914;2023-02-01T10:13:49;6.70;99.90
16198;DHT22;8206;51.440;6.914;2023-02-01T10:16:23;6.80;99.90
16198;DHT22;8206;51.440;6.914;2023-02-01T10:19:06;6.80;99.90
16198;DHT22;8206;51.440;6.914;2023-02-01T10:21:46;6.80;99.90
16198;DHT22;8206;51.440;6.914;2023-02-01T10:24:39;7.00;99.90
16198;DHT22;8206;51.440;6.914;2023-02-01T10:27:13;7.00;99.90
16198;DHT22;8206;51.440;6.914;2023-02-01T10:29:43;7.10;99.90
16198;DHT22;8206;51.440;6.914;2023-02-01T10:32:14;7.20;99.90
16198;DHT22;8206;51.440;6.914;2023-02-01T10:34:42;7.20;99.90
16198;DHT22;8206;51.440;6.914;2023-02-01T10:37:20;7.10;99.90
16198;DHT22;8206;51.440;6.914;2023-02-01T10:39:52;7.00;99.90
16198;DHT22;8206;51.440;6.914;2023-02-01T10:42:23;7.00;99.90
16198;DHT22;8206;51.440;6.914;2023-02-01T10:44:50;6.90;99.90
16198;DHT22;8206;51.440;6.914;2023-02-01T10:47:18;6.90;99.90
16198;DHT22;8206;51.440;6.914;2023-02-01T10:49:52;6.90;99.90
16198;DHT22;8206;51.440;6.914;2023-02-01T10:52:34;6.90;99.90
16198;DHT22;8206;51.440;6.914;2023-02-01T10:55:36;6.90;99.90
16198;DHT22;8206;51.440;6.914;2023-02-01T10:58:05;7.10;99.90
16198;DHT22;8206;51.440;6.914;2023-02-01T11:00:53;7.20;99.90
16198;DHT22;8206;51.440;6.914;2023-02-01T11:03:40;7.10;99.90
16198;DHT22;8206;51.440;6.914;2023-02-01T11:06:17;7.10;99.90
16198;DHT22;8206;51.440;6.914;2023-02-01T11:08:48;7.20;99.90
16198;DHT22;8206;51.440;6.914;2023-02-01T11:11:15;7.30;99.90
16198;DHT22;8206;51.440;6.914;2023-02-01T11:13:42;7.30;99.90
16198;DHT22;8206;51.440;6.914;2023-02-01T11:16:12;7.40;99.90
16198;DHT22;8206;51.440;6.914;2023-02-01T11:18:40;7.30;99.90
16198;DHT22;8206;51.440;6.914;2023-02-01T11:21:08;7.30;99.90
16198;DHT22;8206;51.440;6.914;2023-02-01T11:23:41;7.30;99.90
16198;DHT22;8206;51.440;6.914;2023-02-01T11:26:13;7.30;99.90
16198;DHT22;8206;51.440;6.914;2023-02-01T11:28:52;7.20;99.90
16198;DHT22;8206;51.440;6.914;2023-02-01T11:31:19;7.10;99.90
16198;DHT22;8206;51.440;6.914;2023-02-01T11:33:50;7.10;99.90
16198;DHT22;8206;51.440;6.914;2023-02-01T11:36:21;7.10;99.90
16198;DHT22;8206;51.440;6.914;2023-02-01T11:38:53;7.20;99.90
16198;DHT22;8206;51.440;6.914;2023-02-01T11:41:24;7.40;99.90
16198;DHT22;8206;51.440;6.914;2023-02-01T11:43:54;7.50;99.90
16198;DHT22;8206;51.440;6.914;2023-02-01T11:46:24;7.50;99.90
16198;DHT22;8206;51.440;6.914;2023-02-01T11:48:53;7.50;99.90
16198;DHT22;8206;51.440;6.914;2023-02-01T11:51:32;7.30;99.90
16198;DHT22;8206;51.440;6.914;2023-02-01T11:54:27;7.20;99.90
16198;DHT22;8206;51.440;6.914;2023-02-01T11:57:10;7.00;99.90
16198;DHT22;8206;51.440;6.914;2023-02-01T11:59:53;6.90;99.90
16198;DHT22;8206;51.440;6.914;2023-02-01T12:02:46;6.90;99.90
16198;DHT22;8206;51.440;6.914;2023-02-01T12:05:29;6.80;99.90
16198;DHT22;8206;51.440;6.914;2023-02-01T12:08:22;6.90;99.90
16198;DHT22;8206;51.440;6.914;2023-02-01T12:11:05;6.80;99.90
16198;DHT22;8206;51.440;6.914;2023-02-01T12:13:44;6.90;99.90
16198;DHT22;8206;51.440;6.914;2023-02-01T12:16:20;6.90;99.90
16198;DHT22;8206;51.440;6.914;2023-02-01T12:22:04;6.90;99.90
16198;DHT22;8206;51.440;6.914;2023-02-01T12:27:53;6.90;99.90
16198;DHT22;8206;51.440;6.914;2023-02-01T12:30:53;7.00;99.90
16198;DHT22;8206;51.440;6.914;2023-02-01T12:33:31;6.90;99.90
16198;DHT22;8206;51.440;6.914;2023-02-01T12:36:10;7.00;99.90
16198;DHT22;8206;51.440;6.914;2023-02-01T12:38:46;6.90;99.90
16198;DHT22;8206;51.440;6.914;2023-02-01T12:41:31;7.00;99.90
16198;DHT22;8206;51.440;6.914;2023-02-01T12:44:04;7.00;99.90
16198;DHT22;8206;51.440;6.914;2023-02-01T12:46:40;7.10;99.90
16198;DHT22;8206;51.440;6.914;2023-02-01T12:49:13;7.10;99.90
16198;DHT22;8206;51.440;6.914;2023-02-01T12:51:44;7.10;99.90
16198;DHT22;8206;51.440;6.914;2023-02-01T12:54:16;7.20;99.90
16198;DHT22;8206;51.440;6.914;2023-02-01T12:56:48;7.20;99.90
16198;DHT22;8206;51.440;6.914;2023-02-01T12:59:20;7.20;99.90
16198;DHT22;8206;51.440;6.914;2023-02-01T13:01:54;7.20;99.90
16198;DHT22;8206;51.440;6.914;2023-02-01T13:04:28;7.20;99.90
16198;DHT22;8206;51.440;6.914;2023-02-01T13:07:02;7.20;99.90
16198;DHT22;8206;51.440;6.914;2023-02-01T13:09:37;7.10;99.90
16198;DHT22;8206;51.440;6.914;2023-02-01T13:12:10;7.10;99.90
16198;DHT22;8206;51.440;6.914;2023-02-01T13:14:42;7.10;99.90
16198;DHT22;8206;51.440;6.914;2023-02-01T13:17:16;7.10;99.90
16198;DHT22;8206;51.440;6.914;2023-02-01T13:19:50;7.10;99.90
16198;DHT22;8206;51.440;6.914;2023-02-01T13:22:21;7.10;99.90
16198;DHT22;8206;51.440;6.914;2023-02-01T13:24:53;7.10;99.90
16198;DHT22;8206;51.440;6.914;2023-02-01T13:27:21;7.10;99.90
16198;DHT22;8206;51.440;6.914;2023-02-01T13:29:55;7.20;99.90
16198;DHT22;8206;51.440;6.914;2023-02-01T13:32:45;7.20;99.90
16198;DHT22;8206;51.440;6.914;2023-02-01T13:35:35;7.20;99.90
16198;DHT22;8206;51.440;6.914;2023-02-01T13:38:36;7.30;99.90
16198;DHT22;8206;51.440;6.914;2023-02-01T13:41:19;7.30;99.90
16198;DHT22;8206;51.440;6.914;2023-02-01T13:43:54;7.40;99.90
16198;DHT22;8206;51.440;6.914;2023-02-01T13:46:22;7.40;99.90
16198;DHT22;8206;51.440;6.914;2023-02-01T13:48:53;7.40;99.90
16198;DHT22;8206;51.440;6.914;2023-02-01T13:51:34;7.50;99.90
16198;DHT22;8206;51.440;6.914;2023-02-01T13:54:02;7.50;99.90
16198;DHT22;8206;51.440;6.914;2023-02-01T13:56:39;7.50;99.90
16198;DHT22;8206;51.440;6.914;2023-02-01T14:02:44;7.50;99.90
16198;DHT22;8206;51.440;6.914;2023-02-01T14:08:25;7.50;99.90
16198;DHT22;8206;51.440;6.914;2023-02-01T14:11:02;7.50;99.90
16198;DHT22;8206;51.440;6.914;2023-02-01T14:13:31;7.60;99.90
16198;DHT22;8206;51.440;6.914;2023-02-01T14:16:13;7.60;99.90
16198;DHT22;8206;51.440;6.914;2023-02-01T14:19:00;7.60;99.90
16198;DHT22;8206;51.440;6.914;2023-02-01T14:21:30;7.60;99.90
16198;DHT22;8206;51.440;6.914;2023-02-01T14:24:00;7.60;99.90
16198;DHT22;8206;51.440;6.914;2023-02-01T14:26:42;7.60;99.90
16198;DHT22;8206;51.440;6.914;2023-02-01T14:29:29;7.60;99.90
16198;DHT22;8206;51.440;6.914;2023-02-01T14:32:03;7.60;99.90
16198;DHT22;8206;51.440;6.914;2023-02-01T14:34:35;7.70;99.90
16198;DHT22;8206;51.440;6.914;2023-02-01T14:37:09;7.70;99.90
16198;DHT22;8206;51.440;6.914;2023-02-01T14:39:49;7.70;99.90
16198;DHT22;8206;51.440;6.914;2023-02-01T14:42:21;7.70;99.90
16198;DHT22;8206;51.440;6.914;2023-02-01T14:44:49;7.70;99.90
16198;DHT22;8206;51.440;6.914;2023-02-01T14:47:32;7.70;99.90
16198;DHT22;8206;51.440;6.914;2023-02-01T14:53:14;7.70;99.90
16198;DHT22;8206;51.440;6.914;2023-02-01T14:55:45;7.70;99.90
16198;DHT22;8206;51.440;6.914;2023-02-01T14:58:18;7.70;99.90
16198;DHT22;8206;51.440;6.914;2023-02-01T15:00:51;7.70;99.90
16198;DHT22;8206;51.440;6.914;2023-02-01T15:03:47;7.70;99.90
16198;DHT22;8206;51.440;6.914;2023-02-01T15:06:25;7.70;99.90
16198;DHT22;8206;51.440;6.914;2023-02-01T15:08:54;7.70;99.90
16198;DHT22;8206;51.440;6.914;2023-02-01T15:11:23;7.60;99.90
16198;DHT22;8206;51.440;6.914;2023-02-01T15:13:51;7.60;99.90
16198;DHT22;8206;51.440;6.914;2023-02-01T15:16:22;7.60;99.90
16198;DHT22;8206;51.440;6.914;2023-02-01T15:18:49;7.50;99.90
16198;DHT22;8206;51.440;6.914;2023-02-01T15:21:18;7.60;99.90
16198;DHT22;8206;51.440;6.914;2023-02-01T15:23:45;7.60;99.90
16198;DHT22;8206;51.440;6.914;2023-02-01T15:26:26;7.60;99.90
16198;DHT22;8206;51.440;6.914;2023-02-01T15:28:53;7.60;99.90
16198;DHT22;8206;51.440;6.914;2023-02-01T15:31:32;7.60;99.90
16198;DHT22;8206;51.440;6.914;2023-02-01T15:33:59;7.70;99.90
16198;DHT22;8206;51.440;6.914;2023-02-01T15:36:26;7.60;99.90
16198;DHT22;8206;51.440;6.914;2023-02-01T15:39:16;7.70;99.90
16198;DHT22;8206;51.440;6.914;2023-02-01T15:41:49;7.70;99.90
16198;DHT22;8206;51.440;6.914;2023-02-01T15:44:28;7.60;99.90
16198;DHT22;8206;51.440;6.914;2023-02-01T15:46:57;7.60;99.90
16198;DHT22;8206;51.440;6.914;2023-02-01T15:49:27;7.60;99.90
16198;DHT22;8206;51.440;6.914;2023-02-01T15:51:55;7.60;99.90
16198;DHT22;8206;51.440;6.914;2023-02-01T15:54:26;7.70;99.90
16198;DHT22;8206;51.440;6.914;2023-02-01T15:57:00;7.60;99.90
16198;DHT22;8206;51.440;6.914;2023-02-01T15:59:31;7.70;99.90
16198;DHT22;8206;51.440;6.914;2023-02-01T16:01:59;7.60;99.90
16198;DHT22;8206;51.440;6.914;2023-02-01T16:04:28;7.60;99.90
16198;DHT22;8206;51.440;6.914;2023-02-01T16:06:57;7.60;99.90
16198;DHT22;8206;51.440;6.914;2023-02-01T16:09:36;7.60;99.90
16198;DHT22;8206;51.440;6.914;2023-02-01T16:12:23;7.60;99.90
16198;DHT22;8206;51.440;6.914;2023-02-01T16:14:51;7.60;99.90
16198;DHT22;8206;51.440;6.914;2023-02-01T16:17:18;7.60;99.90
16198;DHT22;8206;51.440;6.914;2023-02-01T16:19:44;7.60;99.90
16198;DHT22;8206;51.440;6.914;2023-02-01T16:22:11;7.60;99.90
16198;DHT22;8206;51.440;6.914;2023-02-01T16:24:38;7.60;99.90
16198;DHT22;8206;51.440;6.914;2023-02-01T16:27:06;7.60;99.90
16198;DHT22;8206;51.440;6.914;2023-02-01T16:29:33;7.40;99.90
16198;DHT22;8206;51.440;6.914;2023-02-01T16:32:00;7.20;99.90
16198;DHT22;8206;51.440;6.914;2023-02-01T16:34:27;7.10;99.90
16198;DHT22;8206;51.440;6.914;2023-02-01T16:36:54;7.10;99.90
16198;DHT22;8206;51.440;6.914;2023-02-01T16:39:23;7.00;99.90
16198;DHT22;8206;51.440;6.914;2023-02-01T16:41:50;7.00;99.90
16198;DHT22;8206;51.440;6.914;2023-02-01T16:44:18;6.90;99.90
16198;DHT22;8206;51.440;6.914;2023-02-01T16:46:46;7.00;99.90
16198;DHT22;8206;51.440;6.914;2023-02-01T16:49:18;7.00;99.90